createdAt,value
2018-02-11T00:01:37.810Z,36.30
2018-02-11T00:04:05.686Z,36.39
2018-02-11T00:06:33.486Z,36.81
2018-02-11T00:09:01.304Z,36.74
2018-02-11T00:11:29.230Z,36.71
2018-02-11T00:16:30.570Z,36.77
2018-02-11T00:18:58.064Z,36.91
2018-02-11T00:21:26.034Z,37.03
2018-02-11T00:23:54.018Z,37.00
2018-02-11T00:26:21.763Z,37.08
2018-02-11T00:28:49.377Z,36.95
2018-02-11T00:31:17.199Z,36.81
2018-02-11T00:33:45.565Z,37.11
2018-02-11T00:36:13.783Z,37.00
2018-02-11T00:38:41.325Z,37.45
2018-02-11T00:41:08.840Z,37.15
2018-02-11T00:43:36.339Z,37.08
2018-02-11T00:46:03.891Z,37.19
2018-02-11T00:48:31.392Z,37.09
2018-02-11T00:50:58.923Z,37.16
2018-02-11T00:53:26.431Z,37.39
2018-02-11T00:55:53.965Z,37.37
2018-02-11T00:58:21.471Z,37.32
2018-02-11T01:00:49.361Z,37.42
2018-02-11T01:03:17.184Z,37.44
2018-02-11T01:05:45.586Z,37.43
2018-02-11T01:08:13.407Z,37.48
2018-02-11T01:10:41.375Z,37.45
2018-02-11T01:13:09.241Z,37.57
2018-02-11T01:15:36.868Z,37.47
2018-02-11T01:18:04.403Z,37.60
2018-02-11T01:20:31.926Z,37.64
2018-02-11T01:22:59.438Z,37.57
2018-02-11T01:25:27.861Z,37.49
2018-02-11T01:27:55.409Z,37.42
2018-02-11T01:30:22.907Z,37.51
2018-02-11T01:32:50.458Z,37.70
2018-02-11T01:35:17.966Z,37.55
2018-02-11T01:37:45.817Z,37.50
2018-02-11T01:40:13.992Z,37.58
2018-02-11T01:42:41.541Z,37.70
2018-02-11T01:45:09.219Z,37.72
2018-02-11T01:47:37.022Z,37.77
2018-02-11T01:50:15.762Z,37.53
2018-02-11T01:52:43.604Z,37.76
2018-02-11T01:55:11.329Z,37.92
2018-02-11T01:57:39.204Z,37.87
2018-02-11T02:00:06.803Z,37.75
2018-02-11T02:02:34.703Z,37.81
2018-02-11T02:05:02.288Z,37.90
2018-02-11T02:07:30.149Z,37.81
2018-02-11T02:09:57.757Z,37.71
2018-02-11T02:12:26.341Z,37.78
2018-02-11T02:14:54.121Z,37.65
2018-02-11T02:17:22.020Z,37.52
2018-02-11T02:19:49.892Z,37.63
2018-02-11T02:22:18.074Z,37.58
2018-02-11T02:24:45.660Z,37.71
2018-02-11T02:27:13.419Z,37.73
2018-02-11T02:29:40.960Z,37.73
2018-02-11T02:32:08.477Z,37.81
2018-02-11T02:34:36.003Z,37.95
2018-02-11T02:37:03.510Z,37.94
2018-02-11T02:39:31.066Z,37.88
2018-02-11T02:41:58.572Z,38.07
2018-02-11T02:44:26.109Z,38.12
2018-02-11T02:46:53.622Z,38.17
2018-02-11T02:49:21.165Z,38.21
2018-02-11T02:51:48.670Z,38.24
2018-02-11T02:54:16.203Z,38.29
2018-02-11T02:56:43.736Z,38.34
2018-02-11T02:59:11.279Z,38.29
2018-02-11T03:01:38.850Z,38.37
2018-02-11T03:04:06.366Z,38.43
2018-02-11T03:06:33.859Z,38.51
2018-02-11T03:09:01.387Z,38.34
2018-02-11T03:11:28.930Z,38.38
2018-02-11T03:13:56.443Z,38.33
2018-02-11T03:16:23.963Z,38.39
2018-02-11T03:18:51.600Z,38.45
2018-02-11T03:21:19.122Z,38.51
2018-02-11T03:23:46.649Z,38.57
2018-02-11T03:26:14.211Z,38.62
2018-02-11T03:28:41.707Z,38.59
2018-02-11T03:31:09.200Z,38.62
2018-02-11T03:33:36.740Z,38.54
2018-02-11T03:36:04.240Z,38.67
2018-02-11T03:38:31.734Z,38.66
2018-02-11T03:40:59.413Z,38.70
2018-02-11T03:43:26.966Z,38.76
2018-02-11T03:45:54.501Z,38.76
2018-02-11T03:48:22.063Z,38.86
2018-02-11T03:50:49.581Z,38.70
2018-02-11T03:53:17.084Z,38.63
2018-02-11T03:55:44.603Z,38.83
2018-02-11T03:58:12.113Z,38.55
2018-02-11T04:00:39.648Z,38.44
2018-02-11T04:03:07.198Z,38.46
2018-02-11T04:05:34.706Z,38.72
2018-02-11T04:08:02.252Z,38.48
2018-02-11T04:10:29.766Z,38.62
2018-02-11T04:12:57.306Z,38.66
2018-02-11T04:15:24.834Z,38.66
2018-02-11T04:17:52.501Z,38.58
2018-02-11T04:20:20.019Z,38.59
2018-02-11T04:22:47.562Z,38.54
2018-02-11T04:25:15.098Z,38.50
2018-02-11T04:27:42.590Z,38.66
2018-02-11T04:30:10.102Z,38.61
2018-02-11T04:32:37.819Z,38.71
2018-02-11T04:35:05.319Z,38.62
2018-02-11T04:37:33.172Z,38.94
2018-02-11T04:40:00.892Z,38.64
2018-02-11T04:42:28.425Z,38.64
2018-02-11T04:44:55.978Z,38.46
2018-02-11T04:47:23.518Z,38.49
2018-02-11T04:49:51.007Z,38.37
2018-02-11T04:52:18.532Z,38.44
2018-02-11T04:54:46.038Z,38.50
2018-02-11T04:57:13.554Z,38.27
2018-02-11T04:59:41.062Z,38.35
2018-02-11T05:02:08.591Z,38.29
2018-02-11T05:04:36.128Z,38.45
2018-02-11T05:07:03.619Z,38.35
2018-02-11T05:09:31.107Z,38.54
2018-02-11T05:11:58.628Z,38.64
2018-02-11T05:14:26.141Z,38.57
2018-02-11T05:16:53.689Z,38.33
2018-02-11T05:19:21.188Z,38.66
2018-02-11T05:21:48.737Z,38.48
2018-02-11T05:24:16.239Z,38.51
2018-02-11T05:26:43.777Z,38.48
2018-02-11T05:29:11.272Z,38.55
2018-02-11T05:31:38.804Z,38.58
2018-02-11T05:34:06.304Z,38.68
2018-02-11T05:36:33.853Z,38.74
2018-02-11T05:39:01.348Z,38.74
2018-02-11T05:41:28.846Z,38.72
2018-02-11T05:43:56.467Z,38.79
2018-02-11T05:46:23.984Z,38.81
2018-02-11T05:48:51.500Z,38.95
2018-02-11T05:51:19.061Z,38.96
2018-02-11T05:53:46.608Z,38.98
2018-02-11T05:56:14.154Z,38.92
2018-02-11T05:58:41.684Z,38.93
2018-02-11T06:01:09.216Z,39.13
2018-02-11T06:03:36.706Z,39.10
2018-02-11T06:06:04.252Z,39.14
2018-02-11T06:08:31.791Z,39.20
2018-02-11T06:10:59.301Z,39.20
2018-02-11T06:13:26.836Z,39.21
2018-02-11T06:15:54.353Z,38.95
2018-02-11T06:18:21.860Z,38.93
2018-02-11T06:20:49.386Z,38.95
2018-02-11T06:23:16.885Z,39.06
2018-02-11T06:25:44.433Z,38.89
2018-02-11T06:28:12.249Z,38.96
2018-02-11T06:30:39.758Z,38.93
2018-02-11T06:33:07.314Z,38.95
2018-02-11T06:35:34.825Z,38.94
2018-02-11T06:38:02.340Z,39.05
2018-02-11T06:40:29.886Z,39.03
2018-02-11T06:42:57.430Z,38.99
2018-02-11T06:45:24.935Z,38.99
2018-02-11T06:47:52.482Z,38.91
2018-02-11T06:50:19.984Z,39.13
2018-02-11T06:52:47.530Z,39.27
2018-02-11T06:55:15.023Z,38.96
2018-02-11T06:57:42.600Z,38.96
2018-02-11T07:00:10.366Z,39.18
2018-02-11T07:02:37.876Z,38.98
2018-02-11T07:05:05.397Z,39.10
2018-02-11T07:07:32.910Z,39.03
2018-02-11T07:10:00.942Z,38.99
2018-02-11T07:12:28.455Z,39.12
2018-02-11T07:14:56.053Z,39.13
2018-02-11T07:17:23.560Z,39.34
2018-02-11T07:19:51.098Z,39.34
2018-02-11T07:22:18.624Z,39.26
2018-02-11T07:24:46.136Z,39.45
2018-02-11T07:27:13.681Z,39.42
2018-02-11T07:29:41.176Z,39.52
2018-02-11T07:32:08.722Z,39.59
2018-02-11T07:34:36.218Z,39.64
2018-02-11T07:37:03.738Z,39.39
2018-02-11T07:39:31.273Z,39.34
2018-02-11T07:41:58.831Z,39.38
2018-02-11T07:44:26.334Z,39.41
2018-02-11T07:46:53.869Z,39.23
2018-02-11T07:49:21.382Z,39.02
2018-02-11T07:51:48.900Z,39.22
2018-02-11T07:54:16.625Z,39.29
2018-02-11T07:56:44.212Z,39.22
2018-02-11T07:59:11.713Z,39.35
2018-02-11T08:01:39.229Z,39.31
2018-02-11T08:04:06.859Z,39.20
2018-02-11T08:06:34.355Z,39.34
2018-02-11T08:09:01.873Z,39.21
2018-02-11T08:11:29.437Z,39.30
2018-02-11T08:13:56.931Z,39.12
2018-02-11T08:16:24.463Z,39.27
2018-02-11T08:18:51.965Z,39.01
2018-02-11T08:21:19.525Z,39.05
2018-02-11T08:23:47.052Z,39.15
2018-02-11T08:26:14.558Z,39.08
2018-02-11T08:28:42.083Z,39.33
2018-02-11T08:31:09.777Z,38.86
2018-02-11T08:33:38.154Z,39.38
2018-02-11T08:36:05.919Z,39.36
2018-02-11T08:38:33.412Z,39.45
2018-02-11T08:41:00.948Z,39.59
2018-02-11T08:43:28.444Z,39.35
2018-02-11T08:45:55.980Z,39.47
2018-02-11T08:48:23.484Z,39.43
2018-02-11T08:50:52.731Z,39.62
2018-02-11T08:53:20.322Z,39.65
2018-02-11T08:55:47.906Z,39.55
2018-02-11T08:58:15.415Z,39.19
2018-02-11T09:00:42.921Z,39.23
2018-02-11T09:03:10.497Z,39.20
2018-02-11T09:05:38.049Z,39.45
2018-02-11T09:08:05.545Z,39.57
2018-02-11T09:10:33.098Z,39.62
2018-02-11T09:13:00.693Z,39.61
2018-02-11T09:15:28.207Z,39.87
2018-02-11T09:17:55.752Z,39.65
2018-02-11T09:20:23.634Z,39.52
2018-02-11T09:22:51.472Z,39.49
2018-02-11T09:25:19.517Z,39.36
2018-02-11T09:27:47.743Z,39.31
2018-02-11T09:30:16.196Z,39.24
2018-02-11T09:32:44.514Z,39.12
2018-02-11T09:35:12.420Z,40.10
2018-02-11T09:37:40.391Z,40.54
2018-02-11T09:40:07.954Z,39.57
2018-02-11T09:42:35.470Z,39.81
2018-02-11T09:45:02.985Z,39.91
2018-02-11T09:47:30.539Z,40.02
2018-02-11T09:49:58.485Z,39.88
2018-02-11T09:52:27.841Z,39.91
2018-02-11T09:54:55.900Z,40.47
2018-02-11T09:57:23.490Z,40.37
2018-02-11T09:59:51.003Z,40.50
2018-02-11T10:02:18.505Z,40.40
2018-02-11T10:04:46.055Z,40.37
2018-02-11T10:07:13.589Z,40.41
2018-02-11T10:09:41.299Z,40.42
2018-02-11T10:12:08.846Z,40.46
2018-02-11T10:14:36.376Z,40.45
2018-02-11T10:17:03.923Z,40.45
2018-02-11T10:19:31.426Z,40.36
2018-02-11T10:21:59.577Z,40.39
2018-02-11T10:24:27.142Z,40.30
2018-02-11T10:26:54.647Z,40.25
2018-02-11T10:29:22.181Z,40.19
2018-02-11T10:31:49.724Z,40.23
2018-02-11T10:34:17.296Z,40.15
2018-02-11T10:36:45.104Z,40.11
2018-02-11T10:39:12.608Z,40.07
2018-02-11T10:41:40.174Z,40.08
2018-02-11T10:44:07.991Z,40.60
2018-02-11T10:46:35.654Z,40.71
2018-02-11T10:49:03.443Z,40.80
2018-02-11T10:51:31.304Z,40.83
2018-02-11T10:53:59.031Z,40.89
2018-02-11T10:56:27.317Z,40.56
2018-02-11T10:58:55.113Z,40.70
2018-02-11T11:01:22.746Z,40.56
2018-02-11T11:03:50.526Z,40.15
2018-02-11T11:06:18.325Z,40.04
2018-02-11T11:08:46.040Z,39.89
2018-02-11T11:11:13.638Z,39.75
2018-02-11T11:13:41.361Z,39.76
2018-02-11T11:16:09.333Z,39.64
2018-02-11T11:18:37.550Z,39.55
2018-02-11T11:21:05.539Z,39.37
2018-02-11T11:23:33.170Z,39.39
2018-02-11T11:26:00.923Z,39.30
2018-02-11T11:28:28.443Z,39.17
2018-02-11T11:30:56.257Z,39.15
2018-02-11T11:33:24.078Z,39.12
2018-02-11T11:35:51.636Z,39.23
2018-02-11T11:38:19.460Z,39.33
2018-02-11T11:40:47.011Z,39.27
2018-02-11T11:43:14.562Z,39.26
2018-02-11T11:45:42.068Z,39.45
2018-02-11T11:48:09.615Z,39.50
2018-02-11T11:50:37.132Z,39.52
2018-02-11T11:53:05.120Z,39.58
2018-02-11T11:55:32.873Z,39.93
2018-02-11T11:58:01.724Z,39.80
2018-02-11T12:00:29.545Z,39.67
2018-02-11T12:02:57.835Z,39.61
2018-02-11T12:05:25.836Z,39.60
2018-02-11T12:07:53.691Z,39.63
2018-02-11T12:10:21.527Z,39.58
2018-02-11T12:12:50.386Z,39.62
2018-02-11T12:15:18.802Z,39.61
2018-02-11T12:17:46.680Z,39.64
2018-02-11T12:20:14.610Z,39.58
2018-02-11T12:22:42.180Z,39.59
2018-02-11T12:25:09.782Z,39.61
2018-02-11T12:27:37.611Z,39.65
2018-02-11T12:30:06.445Z,39.63
2018-02-11T12:32:34.507Z,39.64
2018-02-11T12:35:02.921Z,39.64
2018-02-11T12:37:31.043Z,39.80
2018-02-11T12:39:59.031Z,39.76
2018-02-11T12:42:27.030Z,39.77
2018-02-11T12:44:55.864Z,39.73
2018-02-11T12:47:23.450Z,39.76
2018-02-11T12:49:51.070Z,39.84
2018-02-11T12:52:20.268Z,39.79
2018-02-11T12:54:48.256Z,39.92
2018-02-11T12:57:16.163Z,40.25
2018-02-11T12:59:45.527Z,40.11
2018-02-11T13:02:13.054Z,40.09
2018-02-11T13:04:41.123Z,40.08
2018-02-11T13:07:10.796Z,40.02
2018-02-11T13:09:39.122Z,40.08
2018-02-11T13:12:07.063Z,40.08
2018-02-11T13:14:34.961Z,40.11
2018-02-11T13:17:03.700Z,40.10
2018-02-11T13:19:31.825Z,40.06
2018-02-11T13:21:59.753Z,40.00
2018-02-11T13:24:27.767Z,39.98
2018-02-11T13:26:55.717Z,40.01
2018-02-11T13:29:23.742Z,39.99
2018-02-11T13:31:51.501Z,39.97
2018-02-11T13:34:19.409Z,39.94
2018-02-11T13:36:47.222Z,39.91
2018-02-11T13:39:15.152Z,39.87
2018-02-11T13:41:43.257Z,39.86
2018-02-11T13:44:11.054Z,39.80
2018-02-11T13:46:40.261Z,39.79
2018-02-11T13:49:08.160Z,39.76
2018-02-11T13:51:36.012Z,39.76
2018-02-11T13:54:04.074Z,39.81
2018-02-11T13:56:31.951Z,39.88
2018-02-11T13:59:00.114Z,39.94
2018-02-11T14:01:27.796Z,39.95
2018-02-11T14:03:55.497Z,39.97
2018-02-11T14:06:23.315Z,39.97
2018-02-11T14:08:51.526Z,40.00
2018-02-11T14:11:20.099Z,40.03
2018-02-11T14:13:48.121Z,39.91
2018-02-11T14:16:15.924Z,39.86
2018-02-11T14:18:44.109Z,39.88
2018-02-11T14:21:12.737Z,39.91
2018-02-11T14:23:40.720Z,39.93
2018-02-11T14:26:08.485Z,40.02
2018-02-11T14:28:36.506Z,39.95
2018-02-11T14:31:04.609Z,40.30
2018-02-11T14:33:32.483Z,40.22
2018-02-11T14:36:00.706Z,40.38
2018-02-11T14:38:28.798Z,40.43
2018-02-11T14:40:56.944Z,40.54
2018-02-11T14:43:25.026Z,40.58
2018-02-11T14:45:53.242Z,40.60
2018-02-11T14:48:21.333Z,40.59
2018-02-11T14:50:49.960Z,40.59
2018-02-11T14:53:18.462Z,40.58
2018-02-11T14:55:46.680Z,40.55
2018-02-11T14:58:15.449Z,40.57
2018-02-11T15:00:43.659Z,40.74
2018-02-11T15:03:11.740Z,40.68
2018-02-11T15:05:40.161Z,40.65
2018-02-11T15:08:08.145Z,40.58
2018-02-11T15:10:36.202Z,40.59
2018-02-11T15:13:03.848Z,40.49
2018-02-11T15:15:31.673Z,40.51
2018-02-11T15:17:59.282Z,40.52
2018-02-11T15:20:27.364Z,40.61
2018-02-11T15:22:55.309Z,40.63
2018-02-11T15:25:23.072Z,40.93
2018-02-11T15:27:50.784Z,40.89
2018-02-11T15:30:18.633Z,41.18
2018-02-11T15:32:46.486Z,41.30
2018-02-11T15:35:14.717Z,41.19
2018-02-11T15:37:42.703Z,41.33
2018-02-11T15:40:10.470Z,41.45
2018-02-11T15:42:38.232Z,41.49
2018-02-11T15:45:05.981Z,41.27
2018-02-11T15:47:34.041Z,41.50
2018-02-11T15:50:02.174Z,41.51
2018-02-11T15:52:29.912Z,41.54
2018-02-11T15:54:57.835Z,41.58
2018-02-11T15:57:26.435Z,41.52
2018-02-11T15:59:54.170Z,41.51
2018-02-11T16:02:22.188Z,41.49
2018-02-11T16:04:49.975Z,41.42
2018-02-11T16:07:17.959Z,41.41
2018-02-11T16:09:45.748Z,41.38
2018-02-11T16:12:13.636Z,41.33
2018-02-11T16:14:41.194Z,41.26
2018-02-11T16:17:08.832Z,41.21
2018-02-11T16:19:36.754Z,41.19
2018-02-11T16:22:04.342Z,41.20
2018-02-11T16:24:31.898Z,41.07
2018-02-11T16:26:59.470Z,41.02
2018-02-11T16:29:26.980Z,41.02
2018-02-11T16:31:54.523Z,41.12
2018-02-11T16:34:22.838Z,41.14
2018-02-11T16:36:50.400Z,41.09
2018-02-11T16:39:17.941Z,40.98
2018-02-11T16:41:45.462Z,41.14
2018-02-11T16:44:13.255Z,41.14
2018-02-11T16:46:41.204Z,41.47
2018-02-11T16:49:08.896Z,41.37
2018-02-11T16:51:36.459Z,41.53
2018-02-11T16:54:04.087Z,41.55
2018-02-11T16:56:31.928Z,41.15
2018-02-11T16:58:59.471Z,41.30
2018-02-11T17:01:27.023Z,41.40
2018-02-11T17:03:54.516Z,41.41
2018-02-11T17:06:22.228Z,41.45
2018-02-11T17:08:49.792Z,41.44
2018-02-11T17:11:17.324Z,41.40
2018-02-11T17:13:44.884Z,41.35
2018-02-11T17:16:12.409Z,41.26
2018-02-11T17:18:39.969Z,41.22
2018-02-11T17:21:07.467Z,41.17
2018-02-11T17:23:35.007Z,41.11
2018-02-11T17:26:02.511Z,41.03
2018-02-11T17:28:30.177Z,40.98
2018-02-11T17:30:57.951Z,40.92
2018-02-11T17:33:27.285Z,40.83
2018-02-11T17:35:54.994Z,40.73
2018-02-11T17:38:22.592Z,40.63
2018-02-11T17:40:50.503Z,40.62
2018-02-11T17:43:18.349Z,40.68
2018-02-11T17:45:45.919Z,40.45
2018-02-11T17:48:13.411Z,40.49
2018-02-11T17:50:41.046Z,40.47
2018-02-11T17:53:08.614Z,40.45
2018-02-11T17:55:36.166Z,40.37
2018-02-11T17:58:03.669Z,40.32
2018-02-11T18:00:31.200Z,40.23
2018-02-11T18:02:58.724Z,40.18
2018-02-11T18:05:26.263Z,40.20
2018-02-11T18:07:53.796Z,40.17
2018-02-11T18:10:21.295Z,40.13
2018-02-11T18:12:48.924Z,40.06
2018-02-11T18:17:50.254Z,40.08
2018-02-11T18:20:17.847Z,40.05
2018-02-11T18:22:45.414Z,39.96
2018-02-11T18:25:12.937Z,39.82
2018-02-11T18:27:40.506Z,40.00
2018-02-11T18:30:08.170Z,40.01
2018-02-11T18:32:35.760Z,39.95
2018-02-11T18:35:03.288Z,39.94
2018-02-11T18:37:30.789Z,39.95
2018-02-11T18:39:58.333Z,39.89
2018-02-11T18:42:25.829Z,39.89
2018-02-11T18:44:53.379Z,39.82
2018-02-11T18:47:20.973Z,39.80
2018-02-11T18:49:48.521Z,39.79
2018-02-11T18:52:16.026Z,39.80
2018-02-11T18:54:43.551Z,39.77
2018-02-11T18:57:11.056Z,39.75
2018-02-11T18:59:38.599Z,39.75
2018-02-11T19:02:06.114Z,39.70
2018-02-11T19:04:33.650Z,39.69
2018-02-11T19:07:01.160Z,39.71
2018-02-11T19:09:28.720Z,39.71
2018-02-11T19:11:56.215Z,39.63
2018-02-11T19:14:23.755Z,39.57
2018-02-11T19:16:51.550Z,39.72
2018-02-11T19:19:19.087Z,39.69
2018-02-11T19:21:46.630Z,39.73
2018-02-11T19:24:14.133Z,39.69
2018-02-11T19:26:41.684Z,39.64
2018-02-11T19:29:09.190Z,39.68
2018-02-11T19:31:36.765Z,39.62
2018-02-11T19:34:04.393Z,39.68
2018-02-11T19:36:32.022Z,39.69
2018-02-11T19:38:59.524Z,39.71
2018-02-11T19:41:27.089Z,39.76
2018-02-11T19:43:54.688Z,39.93
2018-02-11T19:46:22.174Z,39.92
2018-02-11T19:48:49.716Z,39.94
2018-02-11T19:51:17.366Z,39.98
2018-02-11T19:53:44.878Z,40.01
2018-02-11T19:56:12.417Z,40.00
2018-02-11T19:58:39.914Z,40.00
2018-02-11T20:01:07.471Z,39.97
2018-02-11T20:03:34.994Z,40.04
2018-02-11T20:06:02.507Z,40.03
2018-02-11T20:08:30.044Z,40.00
2018-02-11T20:10:57.575Z,39.95
2018-02-11T20:13:25.122Z,39.91
2018-02-11T20:15:52.624Z,39.89
2018-02-11T20:18:20.205Z,39.86
2018-02-11T20:20:47.735Z,39.86
2018-02-11T20:23:15.280Z,39.75
2018-02-11T20:25:42.788Z,39.70
2018-02-11T20:28:10.293Z,39.69
2018-02-11T20:30:37.840Z,39.67
2018-02-11T20:33:05.349Z,39.71
2018-02-11T20:35:32.896Z,39.73
2018-02-11T20:38:00.400Z,39.69
2018-02-11T20:40:27.945Z,39.76
2018-02-11T20:42:55.456Z,39.80
2018-02-11T20:45:23.000Z,39.80
2018-02-11T20:47:50.706Z,40.03
2018-02-11T20:50:18.260Z,39.94
2018-02-11T20:52:45.789Z,39.88
2018-02-11T20:55:13.337Z,39.81
2018-02-11T20:57:40.963Z,39.83
2018-02-11T21:00:08.467Z,39.81
2018-02-11T21:02:36.019Z,39.74
2018-02-11T21:05:03.678Z,39.88
2018-02-11T21:07:31.171Z,39.80
2018-02-11T21:09:58.667Z,39.78
2018-02-11T21:12:26.212Z,39.72
2018-02-11T21:14:53.723Z,39.71
2018-02-11T21:17:21.253Z,39.68
2018-02-11T21:19:48.767Z,39.65
2018-02-11T21:22:16.292Z,39.63
2018-02-11T21:24:43.801Z,39.61
2018-02-11T21:27:11.333Z,39.47
2018-02-11T21:29:38.851Z,39.45
2018-02-11T21:32:06.394Z,39.53
2018-02-11T21:34:33.905Z,39.49
2018-02-11T21:37:01.453Z,39.51
2018-02-11T21:39:29.021Z,39.52
2018-02-11T21:41:56.584Z,39.56
2018-02-11T21:44:24.102Z,39.58
2018-02-11T21:46:51.994Z,39.56
2018-02-11T21:49:19.562Z,39.56
2018-02-11T21:51:47.085Z,39.52
2018-02-11T21:54:14.639Z,39.48
2018-02-11T21:56:42.137Z,39.47
2018-02-11T21:59:09.662Z,39.44
2018-02-11T22:01:37.200Z,39.41
2018-02-11T22:04:04.733Z,39.37
2018-02-11T22:06:32.274Z,39.28
2018-02-11T22:08:59.794Z,39.30
2018-02-11T22:11:27.343Z,39.29
2018-02-11T22:13:54.930Z,39.19
2018-02-11T22:16:22.448Z,39.28
2018-02-11T22:18:50.066Z,39.24
2018-02-11T22:21:17.584Z,39.26
2018-02-11T22:23:45.093Z,39.30
2018-02-11T22:26:12.646Z,39.31
2018-02-11T22:28:40.199Z,39.25
2018-02-11T22:31:07.730Z,39.37
2018-02-11T22:33:35.264Z,39.39
2018-02-11T22:36:02.770Z,39.49
2018-02-11T22:38:30.356Z,39.49
2018-02-11T22:40:57.871Z,39.45
2018-02-11T22:43:25.371Z,39.57
2018-02-11T22:45:52.921Z,39.54
2018-02-11T22:48:20.419Z,39.55
2018-02-11T22:50:47.960Z,39.49
2018-02-11T22:53:15.468Z,39.50
2018-02-11T22:55:42.966Z,39.38
2018-02-11T22:58:10.503Z,39.39
2018-02-11T23:00:38.468Z,39.39
2018-02-11T23:03:07.179Z,39.36
2018-02-11T23:05:35.301Z,39.30
2018-02-11T23:08:03.306Z,39.28
2018-02-11T23:10:31.575Z,39.03
2018-02-11T23:12:59.566Z,38.98
2018-02-11T23:15:27.587Z,39.02
2018-02-11T23:17:55.582Z,39.06
2018-02-11T23:20:23.633Z,38.94
2018-02-11T23:22:51.868Z,38.97
2018-02-11T23:25:19.769Z,39.04
2018-02-11T23:27:47.919Z,39.02
2018-02-11T23:30:15.939Z,39.10
2018-02-11T23:32:43.443Z,39.05
2018-02-11T23:35:11.769Z,39.14
2018-02-11T23:37:39.771Z,39.18
2018-02-11T23:40:07.718Z,39.22
2018-02-11T23:42:35.734Z,39.33
2018-02-11T23:45:03.231Z,39.41
2018-02-11T23:47:31.240Z,39.37
2018-02-11T23:49:59.736Z,39.47
2018-02-11T23:52:27.419Z,39.58
2018-02-11T23:54:55.848Z,40.36
2018-02-11T23:57:23.545Z,40.04
2018-02-11T23:59:51.491Z,39.26
